createdAt,value
2022-11-09T00:01:32.336Z,6.97
2022-11-09T00:04:01.061Z,7.04
2022-11-09T00:06:29.137Z,6.98
2022-11-09T00:08:55.756Z,7.03
2022-11-09T00:11:22.446Z,6.99
2022-11-09T00:13:49.018Z,6.89
2022-11-09T00:16:17.040Z,6.92
2022-11-09T00:18:47.390Z,6.87
2022-11-09T00:21:19.192Z,6.83
2022-11-09T00:23:45.911Z,6.82
2022-11-09T00:26:14.748Z,6.82
2022-11-09T00:28:41.392Z,6.85
2022-11-09T00:31:11.070Z,6.76
2022-11-09T00:33:37.526Z,6.89
2022-11-09T00:36:09.710Z,6.93
2022-11-09T00:38:36.767Z,6.92
2022-11-09T00:41:04.903Z,6.94
2022-11-09T00:43:31.347Z,6.84
2022-11-09T00:45:57.835Z,6.95
2022-11-09T00:48:24.289Z,6.91
2022-11-09T00:50:55.396Z,6.98
2022-11-09T00:53:23.139Z,7.06
2022-11-09T00:56:02.661Z,7.08
2022-11-09T00:58:31.390Z,7.11
2022-11-09T01:00:59.230Z,7.03
2022-11-09T01:03:26.362Z,7.05
2022-11-09T01:05:53.125Z,7.03
2022-11-09T01:08:19.669Z,7.04
2022-11-09T01:10:48.092Z,7.06
2022-11-09T01:13:16.423Z,7.01
2022-11-09T01:15:44.992Z,6.99
2022-11-09T01:18:11.437Z,6.98
2022-11-09T01:20:42.488Z,6.99
2022-11-09T01:23:09.987Z,6.97
2022-11-09T01:25:36.766Z,7.03
2022-11-09T01:28:03.580Z,6.97
2022-11-09T01:30:33.455Z,6.93
2022-11-09T01:32:59.909Z,6.96
2022-11-09T01:35:26.344Z,6.91
2022-11-09T01:37:52.776Z,6.88
2022-11-09T01:40:19.259Z,6.85
2022-11-09T01:42:45.899Z,6.92
2022-11-09T01:45:18.152Z,6.89
2022-11-09T01:47:48.800Z,6.88
2022-11-09T01:50:19.244Z,6.82
2022-11-09T01:52:48.573Z,6.72
2022-11-09T01:55:20.406Z,6.78
2022-11-09T01:58:09.906Z,6.73
2022-11-09T02:00:38.979Z,6.72
2022-11-09T02:03:09.864Z,6.69
2022-11-09T02:05:37.697Z,6.65
2022-11-09T02:08:05.349Z,6.63
2022-11-09T02:10:44.864Z,6.60
2022-11-09T02:13:13.158Z,6.67
2022-11-09T02:15:44.429Z,6.61
2022-11-09T02:18:12.204Z,6.60
2022-11-09T02:20:50.407Z,6.61
2022-11-09T02:23:17.787Z,6.60
2022-11-09T02:25:51.613Z,6.59
2022-11-09T02:28:18.069Z,6.52
2022-11-09T02:30:46.823Z,6.50
2022-11-09T02:33:13.259Z,6.49
2022-11-09T02:35:39.660Z,6.50
2022-11-09T02:38:08.834Z,6.46
2022-11-09T02:40:37.861Z,6.43
2022-11-09T02:43:05.826Z,6.36
2022-11-09T02:45:32.319Z,6.41
2022-11-09T02:47:59.028Z,6.40
2022-11-09T02:50:26.374Z,6.40
2022-11-09T02:52:52.791Z,6.34
2022-11-09T02:55:19.215Z,6.31
2022-11-09T02:57:45.800Z,6.37
2022-11-09T03:00:12.901Z,6.38
2022-11-09T03:02:39.334Z,6.38
2022-11-09T03:05:06.398Z,6.31
2022-11-09T03:07:32.855Z,6.40
2022-11-09T03:09:59.365Z,6.40
2022-11-09T03:12:31.584Z,6.38
2022-11-09T03:15:03.937Z,6.40
2022-11-09T03:17:31.810Z,6.44
2022-11-09T03:19:58.248Z,6.34
2022-11-09T03:22:24.659Z,6.44
2022-11-09T03:24:51.158Z,6.45
2022-11-09T03:27:17.869Z,6.49
2022-11-09T03:29:44.428Z,6.42
2022-11-09T03:32:10.868Z,6.42
2022-11-09T03:34:37.298Z,6.34
2022-11-09T03:37:04.158Z,6.31
2022-11-09T03:39:30.639Z,6.37
2022-11-09T03:41:57.074Z,6.33
2022-11-09T03:44:23.563Z,6.48
2022-11-09T03:46:49.984Z,6.47
2022-11-09T03:49:16.457Z,6.49
2022-11-09T03:51:42.859Z,6.45
2022-11-09T03:54:09.371Z,6.46
2022-11-09T03:56:35.846Z,6.46
2022-11-09T03:59:02.282Z,6.44
2022-11-09T04:01:29.244Z,6.37
2022-11-09T04:03:55.728Z,6.39
2022-11-09T04:06:22.322Z,6.27
2022-11-09T04:08:51.505Z,6.22
2022-11-09T04:11:18.189Z,6.45
2022-11-09T04:13:44.741Z,6.44
2022-11-09T04:16:11.227Z,6.42
2022-11-09T04:18:37.861Z,6.51
2022-11-09T04:21:04.386Z,6.33
2022-11-09T04:23:30.895Z,6.40
2022-11-09T04:25:59.561Z,6.34
2022-11-09T04:28:26.488Z,6.24
2022-11-09T04:30:52.961Z,6.20
2022-11-09T04:33:19.927Z,6.28
2022-11-09T04:35:46.738Z,6.19
2022-11-09T04:38:14.099Z,6.22
2022-11-09T04:40:40.803Z,6.32
2022-11-09T04:43:09.518Z,6.22
2022-11-09T04:45:36.014Z,6.25
2022-11-09T04:48:05.554Z,6.19
2022-11-09T04:50:32.744Z,6.26
2022-11-09T04:53:13.408Z,6.15
2022-11-09T04:55:40.484Z,6.13
2022-11-09T04:58:07.288Z,6.05
2022-11-09T05:00:34.275Z,6.12
2022-11-09T05:03:05.053Z,6.11
2022-11-09T05:05:33.813Z,6.18
2022-11-09T05:08:00.230Z,6.15
2022-11-09T05:10:26.800Z,6.03
2022-11-09T05:13:04.445Z,6.05
2022-11-09T05:15:31.382Z,6.04
2022-11-09T05:17:58.135Z,6.03
2022-11-09T05:20:24.892Z,5.82
2022-11-09T05:23:10.040Z,5.98
2022-11-09T05:25:36.464Z,5.90
2022-11-09T05:28:03.085Z,5.89
2022-11-09T05:30:29.587Z,5.93
2022-11-09T05:32:55.997Z,6.01
2022-11-09T05:35:22.577Z,5.89
2022-11-09T05:37:49.807Z,5.96
2022-11-09T05:40:17.765Z,5.91
2022-11-09T05:42:44.679Z,5.91
2022-11-09T05:45:40.712Z,5.77
2022-11-09T05:48:03.544Z,5.91
2022-11-09T05:50:29.968Z,5.79
2022-11-09T05:52:59.143Z,5.86
2022-11-09T05:55:25.712Z,5.93
2022-11-09T05:57:52.204Z,5.86
2022-11-09T06:00:18.941Z,5.98
2022-11-09T06:02:45.548Z,5.91
2022-11-09T06:05:12.215Z,6.03
2022-11-09T06:07:38.767Z,5.89
2022-11-09T06:10:05.895Z,6.03
2022-11-09T06:12:32.362Z,6.01
2022-11-09T06:14:59.462Z,5.86
2022-11-09T06:17:26.243Z,5.98
2022-11-09T06:19:52.894Z,6.11
2022-11-09T06:22:19.560Z,6.13
2022-11-09T06:24:46.105Z,6.11
2022-11-09T06:27:12.656Z,6.16
2022-11-09T06:29:39.112Z,6.21
2022-11-09T06:32:05.759Z,6.25
2022-11-09T06:34:32.219Z,6.33
2022-11-09T06:36:59.036Z,6.41
2022-11-09T06:39:25.498Z,6.39
2022-11-09T06:41:51.928Z,6.33
2022-11-09T06:44:18.353Z,6.40
2022-11-09T06:46:44.766Z,6.44
2022-11-09T06:50:40.368Z,6.37
2022-11-09T06:53:09.626Z,6.34
2022-11-09T06:55:36.752Z,6.50
2022-11-09T06:58:11.488Z,6.55
2022-11-09T07:00:38.391Z,6.69
2022-11-09T07:03:04.815Z,6.67
2022-11-09T07:05:31.441Z,6.65
2022-11-09T07:07:58.243Z,6.70
2022-11-09T07:10:25.228Z,6.70
2022-11-09T07:12:51.803Z,6.82
2022-11-09T07:15:18.757Z,6.92
2022-11-09T07:17:45.256Z,7.00
2022-11-09T07:20:12.167Z,7.03
2022-11-09T07:22:39.892Z,7.09
2022-11-09T07:25:07.848Z,7.17
2022-11-09T07:27:34.380Z,7.26
2022-11-09T07:30:01.003Z,7.32
2022-11-09T07:33:02.043Z,7.37
2022-11-09T07:35:14.403Z,7.41
2022-11-09T07:37:40.822Z,7.38
2022-11-09T07:40:08.201Z,7.46
2022-11-09T07:42:34.762Z,7.41
2022-11-09T07:45:01.265Z,7.67
2022-11-09T07:47:27.914Z,7.81
2022-11-09T07:49:54.412Z,7.92
2022-11-09T07:52:20.854Z,8.11
2022-11-09T07:54:51.938Z,8.09
2022-11-09T07:57:18.842Z,8.23
2022-11-09T07:59:45.355Z,8.39
2022-11-09T08:02:12.848Z,8.61
2022-11-09T08:04:39.695Z,8.51
2022-11-09T08:07:06.293Z,8.68
2022-11-09T08:09:32.967Z,8.82
2022-11-09T08:12:02.168Z,9.04
2022-11-09T08:14:29.498Z,9.41
2022-11-09T08:16:56.745Z,9.77
2022-11-09T08:19:23.353Z,10.26
2022-11-09T08:21:50.140Z,11.00
2022-11-09T08:24:16.696Z,11.54
2022-11-09T08:26:43.408Z,11.62
2022-11-09T08:29:09.978Z,11.84
2022-11-09T08:31:36.906Z,11.76
2022-11-09T08:34:03.733Z,12.75
2022-11-09T08:36:31.429Z,13.26
2022-11-09T08:38:59.311Z,13.43
2022-11-09T08:41:25.930Z,13.81
2022-11-09T08:43:52.617Z,13.19
2022-11-09T08:46:19.356Z,13.46
2022-11-09T08:48:46.937Z,14.04
2022-11-09T08:51:13.564Z,13.31
2022-11-09T08:53:40.319Z,13.03
2022-11-09T08:56:08.264Z,13.09
2022-11-09T08:58:35.211Z,12.98
2022-11-09T09:01:01.963Z,12.35
2022-11-09T09:03:29.476Z,12.20
2022-11-09T09:05:56.118Z,12.87
2022-11-09T09:08:23.837Z,14.45
2022-11-09T09:10:50.715Z,14.59
2022-11-09T09:13:19.337Z,14.51
2022-11-09T09:15:48.478Z,14.12
2022-11-09T09:18:15.167Z,13.58
2022-11-09T09:20:41.699Z,12.91
2022-11-09T09:23:08.244Z,12.32
2022-11-09T09:25:34.985Z,12.16
2022-11-09T09:28:01.620Z,11.91
2022-11-09T09:30:29.370Z,11.99
2022-11-09T09:33:02.019Z,12.30
2022-11-09T09:35:29.817Z,12.38
2022-11-09T09:37:58.724Z,12.02
2022-11-09T09:40:35.355Z,12.34
2022-11-09T09:43:02.068Z,12.40
2022-11-09T09:45:32.832Z,12.28
2022-11-09T09:48:05.428Z,12.12
2022-11-09T09:50:38.221Z,11.90
2022-11-09T09:53:24.147Z,11.82
2022-11-09T09:55:56.307Z,11.50
2022-11-09T09:58:31.753Z,11.49
2022-11-09T10:01:15.480Z,11.54
2022-11-09T10:03:42.280Z,11.53
2022-11-09T10:06:15.063Z,11.66
2022-11-09T10:08:57.085Z,11.70
2022-11-09T10:11:46.393Z,11.42
2022-11-09T10:14:29.783Z,11.41
2022-11-09T10:17:14.800Z,11.41
2022-11-09T10:19:58.454Z,11.44
2022-11-09T10:22:49.901Z,11.41
2022-11-09T10:25:43.318Z,11.27
2022-11-09T10:28:15.363Z,11.32
2022-11-09T10:30:42.322Z,11.31
2022-11-09T10:33:11.395Z,11.36
2022-11-09T10:36:03.844Z,11.38
2022-11-09T10:38:38.736Z,11.48
2022-11-09T10:41:32.722Z,11.65
2022-11-09T10:43:59.777Z,11.80
2022-11-09T10:46:26.259Z,11.88
2022-11-09T10:48:54.288Z,12.02
2022-11-09T10:51:35.868Z,11.92
2022-11-09T10:54:28.335Z,12.15
2022-11-09T10:57:06.636Z,12.10
2022-11-09T10:59:39.952Z,12.16
2022-11-09T11:02:24.432Z,12.11
2022-11-09T11:05:16.586Z,12.01
2022-11-09T11:07:43.477Z,11.96
2022-11-09T11:10:15.832Z,12.14
2022-11-09T11:12:51.596Z,12.25
2022-11-09T11:15:32.569Z,12.19
2022-11-09T11:18:04.996Z,12.16
2022-11-09T11:20:35.935Z,12.23
2022-11-09T11:23:13.272Z,12.40
2022-11-09T11:25:59.264Z,12.44
2022-11-09T11:28:47.890Z,12.46
2022-11-09T11:31:16.385Z,12.65
2022-11-09T11:33:42.934Z,12.66
2022-11-09T11:36:20.837Z,12.78
2022-11-09T11:38:57.713Z,12.52
2022-11-09T11:41:24.366Z,12.49
2022-11-09T11:43:56.850Z,12.42
2022-11-09T11:46:37.424Z,12.32
2022-11-09T11:49:33.378Z,12.38
2022-11-09T11:52:10.741Z,12.45
2022-11-09T11:55:13.962Z,12.28
2022-11-09T11:57:49.116Z,12.43
2022-11-09T12:00:18.292Z,12.58
2022-11-09T12:03:05.956Z,12.62
2022-11-09T12:05:57.453Z,12.68
2022-11-09T12:08:29.367Z,12.65
2022-11-09T12:10:58.328Z,12.55
2022-11-09T12:13:49.671Z,12.67
2022-11-09T12:16:29.371Z,12.77
2022-11-09T12:19:14.369Z,12.72
2022-11-09T12:21:52.701Z,12.66
2022-11-09T12:24:35.628Z,12.72
2022-11-09T12:27:31.129Z,12.82
2022-11-09T12:30:06.391Z,12.80
2022-11-09T12:32:59.425Z,12.64
2022-11-09T12:35:42.290Z,12.80
2022-11-09T12:38:17.238Z,12.94
2022-11-09T12:40:59.035Z,12.91
2022-11-09T12:43:29.678Z,12.95
2022-11-09T12:45:57.581Z,12.83
2022-11-09T12:48:35.376Z,12.71
2022-11-09T12:51:04.015Z,12.62
2022-11-09T12:53:34.300Z,12.64
2022-11-09T12:56:10.107Z,12.65
2022-11-09T12:58:37.970Z,12.70
2022-11-09T13:01:06.571Z,12.45
2022-11-09T13:03:35.625Z,12.35
2022-11-09T13:06:27.884Z,12.39
2022-11-09T13:09:13.456Z,12.29
2022-11-09T13:11:42.456Z,12.29
2022-11-09T13:14:27.039Z,12.26
2022-11-09T13:17:01.957Z,12.25
2022-11-09T13:19:34.619Z,12.11
2022-11-09T13:22:16.089Z,12.07
2022-11-09T13:25:00.164Z,11.90
2022-11-09T13:27:32.622Z,11.98
2022-11-09T13:30:00.721Z,11.89
2022-11-09T13:32:29.506Z,11.93
2022-11-09T13:35:00.641Z,11.84
2022-11-09T13:37:36.081Z,11.81
2022-11-09T13:40:31.235Z,11.87
2022-11-09T13:43:16.447Z,11.77
2022-11-09T13:45:56.519Z,11.73
2022-11-09T13:48:39.531Z,11.73
2022-11-09T13:51:09.052Z,11.78
2022-11-09T13:53:38.626Z,11.76
2022-11-09T13:56:33.683Z,11.79
2022-11-09T13:59:09.980Z,11.70
2022-11-09T14:01:48.530Z,11.59
2022-11-09T14:04:25.947Z,11.64
2022-11-09T14:07:12.699Z,11.71
2022-11-09T14:09:58.544Z,11.62
2022-11-09T14:12:42.057Z,11.66
2022-11-09T14:15:30.863Z,11.69
2022-11-09T14:18:13.643Z,11.73
2022-11-09T14:20:58.542Z,11.59
2022-11-09T14:23:32.285Z,11.60
2022-11-09T14:26:06.886Z,11.65
2022-11-09T14:28:34.848Z,11.68
2022-11-09T14:31:02.176Z,11.66
2022-11-09T14:33:34.852Z,11.62
2022-11-09T14:36:02.970Z,11.57
2022-11-09T14:38:35.934Z,11.55
2022-11-09T14:41:03.454Z,11.47
2022-11-09T14:43:47.635Z,11.50
2022-11-09T14:46:20.864Z,11.38
2022-11-09T14:49:00.662Z,11.38
2022-11-09T14:51:38.696Z,11.31
2022-11-09T14:54:12.752Z,11.36
2022-11-09T14:56:40.106Z,11.37
2022-11-09T14:59:14.709Z,11.34
2022-11-09T15:01:41.538Z,11.32
2022-11-09T15:04:11.401Z,11.23
2022-11-09T15:06:46.624Z,11.31
2022-11-09T15:09:19.569Z,11.20
2022-11-09T15:11:46.537Z,11.29
2022-11-09T15:14:35.002Z,11.27
2022-11-09T15:17:15.480Z,11.24
2022-11-09T15:19:50.287Z,11.24
2022-11-09T15:22:49.547Z,11.14
2022-11-09T15:25:34.536Z,11.10
2022-11-09T15:28:12.792Z,10.98
2022-11-09T15:30:45.664Z,11.06
2022-11-09T15:33:21.342Z,10.94
2022-11-09T15:35:53.115Z,11.09
2022-11-09T15:38:39.390Z,11.05
2022-11-09T15:41:18.681Z,10.90
2022-11-09T15:43:45.613Z,10.90
2022-11-09T15:46:24.752Z,10.87
2022-11-09T15:48:51.842Z,10.96
2022-11-09T15:51:18.464Z,10.93
2022-11-09T15:53:45.126Z,10.97
2022-11-09T15:56:20.447Z,10.85
2022-11-09T15:58:49.100Z,10.86
2022-11-09T16:01:16.225Z,10.90
2022-11-09T16:03:42.817Z,10.87
2022-11-09T16:06:22.365Z,10.87
2022-11-09T16:08:50.029Z,10.83
2022-11-09T16:11:16.743Z,10.83
2022-11-09T16:13:43.414Z,10.77
2022-11-09T16:16:12.358Z,10.81
2022-11-09T16:18:38.939Z,10.84
2022-11-09T16:21:23.935Z,10.79
2022-11-09T16:23:55.655Z,10.71
2022-11-09T16:26:24.698Z,10.70
2022-11-09T16:28:51.340Z,10.60
2022-11-09T16:31:25.249Z,10.64
2022-11-09T16:34:01.643Z,10.54
2022-11-09T16:36:29.546Z,10.49
2022-11-09T16:38:56.794Z,10.49
2022-11-09T16:41:23.821Z,10.47
2022-11-09T16:43:55.531Z,10.47
2022-11-09T16:46:24.257Z,10.41
2022-11-09T16:48:50.988Z,10.40
2022-11-09T16:51:17.485Z,10.22
2022-11-09T16:53:44.347Z,10.25
2022-11-09T16:56:11.000Z,10.17
2022-11-09T16:58:37.507Z,10.27
2022-11-09T17:01:11.618Z,10.31
2022-11-09T17:03:39.098Z,10.14
2022-11-09T17:06:07.383Z,10.13
2022-11-09T17:08:33.839Z,10.10
2022-11-09T17:11:00.396Z,10.12
2022-11-09T17:13:26.941Z,10.14
2022-11-09T17:15:53.524Z,10.10
2022-11-09T17:18:20.437Z,9.99
2022-11-09T17:20:49.264Z,10.03
2022-11-09T17:23:18.805Z,9.97
2022-11-09T17:25:59.658Z,9.98
2022-11-09T17:28:26.750Z,9.98
2022-11-09T17:30:53.966Z,9.94
2022-11-09T17:33:20.744Z,9.96
2022-11-09T17:35:47.570Z,9.88
2022-11-09T17:38:14.118Z,9.86
2022-11-09T17:40:40.553Z,9.84
2022-11-09T17:43:07.122Z,9.85
2022-11-09T17:45:35.351Z,9.80
2022-11-09T17:48:01.816Z,9.72
2022-11-09T17:50:28.891Z,9.83
2022-11-09T17:52:55.319Z,9.79
2022-11-09T17:55:21.822Z,9.79
2022-11-09T17:57:48.648Z,9.84
2022-11-09T18:00:15.491Z,9.80
2022-11-09T18:02:42.393Z,9.84
2022-11-09T18:05:10.904Z,9.78
2022-11-09T18:07:37.376Z,9.67
2022-11-09T18:10:04.220Z,9.68
2022-11-09T18:12:30.725Z,9.68
2022-11-09T18:14:57.231Z,9.72
2022-11-09T18:17:23.778Z,9.69
2022-11-09T18:19:50.230Z,9.67
2022-11-09T18:22:16.729Z,9.66
2022-11-09T18:24:43.200Z,9.69
2022-11-09T18:27:09.681Z,9.76
2022-11-09T18:29:36.096Z,9.71
2022-11-09T18:32:02.525Z,9.65
2022-11-09T18:34:29.221Z,9.67
2022-11-09T18:36:55.710Z,9.67
2022-11-09T18:39:22.195Z,9.70
2022-11-09T18:41:48.750Z,9.59
2022-11-09T18:44:15.287Z,9.60
2022-11-09T18:46:41.771Z,9.54
2022-11-09T18:49:13.907Z,9.48
2022-11-09T18:51:40.846Z,9.51
2022-11-09T18:54:07.321Z,9.45
2022-11-09T18:56:34.072Z,9.41
2022-11-09T18:59:00.904Z,9.41
2022-11-09T19:01:27.611Z,9.63
2022-11-09T19:03:59.003Z,9.58
2022-11-09T19:06:26.551Z,9.44
2022-11-09T19:09:11.885Z,9.58
2022-11-09T19:11:38.449Z,9.61
2022-11-09T19:14:04.924Z,9.58
2022-11-09T19:16:31.419Z,9.55
2022-11-09T19:18:58.213Z,9.35
2022-11-09T19:21:24.703Z,9.47
2022-11-09T19:23:51.693Z,9.36
2022-11-09T19:26:18.390Z,9.39
2022-11-09T19:28:44.922Z,9.46
2022-11-09T19:31:13.569Z,9.43
2022-11-09T19:33:40.135Z,9.24
2022-11-09T19:36:29.095Z,9.24
2022-11-09T19:38:53.622Z,9.35
2022-11-09T19:41:20.384Z,9.32
2022-11-09T19:43:50.886Z,9.37
2022-11-09T19:46:17.774Z,9.33
2022-11-09T19:48:45.736Z,9.21
2022-11-09T19:51:13.005Z,9.23
2022-11-09T19:53:42.375Z,9.24
2022-11-09T19:56:09.636Z,9.27
2022-11-09T19:58:36.303Z,9.25
2022-11-09T20:01:04.586Z,9.21
2022-11-09T20:03:31.178Z,9.14
2022-11-09T20:05:57.939Z,9.10
2022-11-09T20:08:25.247Z,9.15
2022-11-09T20:10:52.447Z,9.08
2022-11-09T20:13:20.100Z,8.92
2022-11-09T20:15:46.726Z,8.88
2022-11-09T20:18:13.427Z,8.91
2022-11-09T20:20:40.007Z,8.93
2022-11-09T20:23:06.610Z,8.90
2022-11-09T20:25:33.156Z,8.77
2022-11-09T20:27:59.956Z,8.78
2022-11-09T20:30:26.572Z,8.76
2022-11-09T20:32:53.158Z,8.79
2022-11-09T20:35:19.884Z,8.69
2022-11-09T20:37:46.488Z,8.59
2022-11-09T20:40:13.254Z,8.51
2022-11-09T20:42:39.709Z,8.48
2022-11-09T20:45:06.444Z,8.47
2022-11-09T20:48:02.856Z,8.53
2022-11-09T20:50:20.214Z,8.45
2022-11-09T20:52:46.701Z,8.37
2022-11-09T20:55:13.763Z,8.27
2022-11-09T20:57:40.297Z,8.24
2022-11-09T21:00:07.748Z,8.30
2022-11-09T21:02:34.253Z,8.24
2022-11-09T21:05:01.242Z,8.17
2022-11-09T21:07:27.735Z,8.18
2022-11-09T21:09:54.245Z,8.21
2022-11-09T21:12:24.976Z,8.22
2022-11-09T21:14:52.971Z,8.19
2022-11-09T21:17:20.109Z,8.10
2022-11-09T21:19:46.851Z,8.16
2022-11-09T21:22:13.747Z,7.94
2022-11-09T21:24:58.932Z,7.97
2022-11-09T21:27:47.859Z,7.99
2022-11-09T21:30:15.107Z,8.03
2022-11-09T21:32:41.680Z,7.94
2022-11-09T21:35:08.621Z,7.96
2022-11-09T21:37:35.137Z,7.94
2022-11-09T21:40:01.671Z,7.88
2022-11-09T21:42:30.863Z,7.90
2022-11-09T21:44:57.495Z,7.94
2022-11-09T21:47:24.455Z,7.90
2022-11-09T21:49:50.963Z,7.86
2022-11-09T21:52:17.463Z,7.67
2022-11-09T21:54:43.934Z,7.63
2022-11-09T21:57:10.445Z,7.64
2022-11-09T21:59:36.991Z,7.63
2022-11-09T22:02:03.687Z,7.58
2022-11-09T22:04:30.099Z,7.56
2022-11-09T22:06:56.647Z,7.48
2022-11-09T22:09:23.311Z,7.56
2022-11-09T22:12:08.852Z,7.44
2022-11-09T22:14:54.220Z,7.46
2022-11-09T22:17:20.993Z,7.41
2022-11-09T22:20:06.270Z,7.34
2022-11-09T22:22:34.027Z,7.28
2022-11-09T22:25:00.471Z,7.30
2022-11-09T22:27:27.553Z,7.19
2022-11-09T22:29:54.030Z,7.29
2022-11-09T22:32:20.673Z,7.27
2022-11-09T22:34:47.220Z,7.23
2022-11-09T22:37:13.831Z,7.22
2022-11-09T22:39:45.862Z,7.12
2022-11-09T22:42:13.632Z,7.11
2022-11-09T22:44:40.091Z,7.08
2022-11-09T22:47:06.556Z,7.20
2022-11-09T22:49:34.199Z,7.21
2022-11-09T22:52:00.626Z,7.05
2022-11-09T22:54:27.919Z,6.98
2022-11-09T22:56:54.389Z,7.04
2022-11-09T22:59:20.862Z,7.25
2022-11-09T23:01:48.187Z,7.17
2022-11-09T23:04:14.666Z,7.22
2022-11-09T23:06:41.169Z,7.29
2022-11-09T23:09:07.968Z,7.18
2022-11-09T23:11:34.414Z,7.16
2022-11-09T23:14:00.918Z,7.26
2022-11-09T23:16:27.572Z,7.32
2022-11-09T23:18:54.757Z,7.35
2022-11-09T23:21:26.912Z,7.40
2022-11-09T23:23:55.267Z,7.16
2022-11-09T23:26:22.632Z,7.18
2022-11-09T23:28:49.366Z,7.16
2022-11-09T23:31:19.356Z,7.31
2022-11-09T23:33:48.129Z,7.27
2022-11-09T23:36:14.760Z,7.31
2022-11-09T23:38:41.320Z,7.25
2022-11-09T23:41:09.471Z,7.12
2022-11-09T23:43:36.663Z,7.07
2022-11-09T23:46:06.447Z,7.04
2022-11-09T23:48:33.141Z,7.11
2022-11-09T23:51:00.543Z,7.23
2022-11-09T23:53:29.025Z,7.25
2022-11-09T23:56:03.412Z,7.27
2022-11-09T23:58:30.376Z,7.28
